sensor_id;sensor_type;location;lat;lon;timestamp;P1;durP1;ratioP1;P2;durP2;ratioP2
28160;SDS011;15448;51.956;7.670;2022-08-21T00:02:19;14.67;;;13.77;;
28160;SDS011;15448;51.956;7.670;2022-08-21T00:04:46;13.97;;;13.17;;
28160;SDS011;15448;51.956;7.670;2022-08-21T00:07:12;13.77;;;12.97;;
28160;SDS011;15448;51.956;7.670;2022-08-21T00:09:38;14.50;;;13.70;;
28160;SDS011;15448;51.956;7.670;2022-08-21T00:12:04;15.23;;;13.70;;
28160;SDS011;15448;51.956;7.670;2022-08-21T00:14:30;13.77;;;12.67;;
28160;SDS011;15448;51.956;7.670;2022-08-21T00:16:56;13.73;;;12.93;;
28160;SDS011;15448;51.956;7.670;2022-08-21T00:19:23;14.93;;;13.80;;
28160;SDS011;15448;51.956;7.670;2022-08-21T00:21:49;14.10;;;13.10;;
28160;SDS011;15448;51.956;7.670;2022-08-21T00:24:16;13.87;;;13.03;;
28160;SDS011;15448;51.956;7.670;2022-08-21T00:26:43;14.30;;;13.60;;
28160;SDS011;15448;51.956;7.670;2022-08-21T00:29:08;14.30;;;13.50;;
28160;SDS011;15448;51.956;7.670;2022-08-21T00:31:34;15.60;;;14.60;;
28160;SDS011;15448;51.956;7.670;2022-08-21T00:34:00;14.70;;;13.70;;
28160;SDS011;15448;51.956;7.670;2022-08-21T00:36:26;14.37;;;13.53;;
28160;SDS011;15448;51.956;7.670;2022-08-21T00:38:52;15.33;;;14.00;;
28160;SDS011;15448;51.956;7.670;2022-08-21T00:41:17;14.30;;;13.47;;
28160;SDS011;15448;51.956;7.670;2022-08-21T00:43:43;15.00;;;14.00;;
28160;SDS011;15448;51.956;7.670;2022-08-21T00:46:08;15.23;;;14.00;;
28160;SDS011;15448;51.956;7.670;2022-08-21T00:48:34;16.80;;;15.27;;
28160;SDS011;15448;51.956;7.670;2022-08-21T00:51:21;15.60;;;14.50;;
28160;SDS011;15448;51.956;7.670;2022-08-21T00:53:56;14.50;;;13.50;;
28160;SDS011;15448;51.956;7.670;2022-08-21T00:56:25;15.60;;;14.60;;
28160;SDS011;15448;51.956;7.670;2022-08-21T00:58:53;14.20;;;13.50;;
28160;SDS011;15448;51.956;7.670;2022-08-21T01:01:22;15.60;;;14.23;;
28160;SDS011;15448;51.956;7.670;2022-08-21T01:03:48;15.00;;;14.30;;
28160;SDS011;15448;51.956;7.670;2022-08-21T01:06:14;14.57;;;13.87;;
28160;SDS011;15448;51.956;7.670;2022-08-21T01:08:41;15.20;;;14.40;;
28160;SDS011;15448;51.956;7.670;2022-08-21T01:11:07;15.13;;;14.33;;
28160;SDS011;15448;51.956;7.670;2022-08-21T01:13:35;15.60;;;14.73;;
28160;SDS011;15448;51.956;7.670;2022-08-21T01:16:02;15.00;;;14.20;;
28160;SDS011;15448;51.956;7.670;2022-08-21T01:18:29;15.10;;;14.20;;
28160;SDS011;15448;51.956;7.670;2022-08-21T01:23:31;15.07;;;14.10;;
28160;SDS011;15448;51.956;7.670;2022-08-21T01:25:58;15.07;;;14.27;;
28160;SDS011;15448;51.956;7.670;2022-08-21T01:28:24;16.23;;;14.73;;
28160;SDS011;15448;51.956;7.670;2022-08-21T01:30:51;15.20;;;14.40;;
28160;SDS011;15448;51.956;7.670;2022-08-21T01:33:20;14.50;;;13.73;;
28160;SDS011;15448;51.956;7.670;2022-08-21T01:35:49;14.47;;;13.60;;
28160;SDS011;15448;51.956;7.670;2022-08-21T01:38:14;14.60;;;14.00;;
28160;SDS011;15448;51.956;7.670;2022-08-21T01:40:40;15.53;;;14.67;;
28160;SDS011;15448;51.956;7.670;2022-08-21T01:43:06;14.43;;;13.70;;
28160;SDS011;15448;51.956;7.670;2022-08-21T01:45:31;16.17;;;14.33;;
28160;SDS011;15448;51.956;7.670;2022-08-21T01:47:57;15.60;;;14.60;;
28160;SDS011;15448;51.956;7.670;2022-08-21T01:50:22;15.83;;;14.90;;
28160;SDS011;15448;51.956;7.670;2022-08-21T01:52:48;15.77;;;14.60;;
28160;SDS011;15448;51.956;7.670;2022-08-21T01:55:15;16.03;;;14.83;;
28160;SDS011;15448;51.956;7.670;2022-08-21T01:57:43;16.20;;;15.20;;
28160;SDS011;15448;51.956;7.670;2022-08-21T02:00:10;15.00;;;14.20;;
28160;SDS011;15448;51.956;7.670;2022-08-21T02:02:38;16.00;;;14.90;;
28160;SDS011;15448;51.956;7.670;2022-08-21T02:05:04;15.40;;;14.43;;
28160;SDS011;15448;51.956;7.670;2022-08-21T02:07:40;15.27;;;14.57;;
28160;SDS011;15448;51.956;7.670;2022-08-21T02:10:08;15.63;;;14.63;;
28160;SDS011;15448;51.956;7.670;2022-08-21T02:12:35;15.33;;;14.30;;
28160;SDS011;15448;51.956;7.670;2022-08-21T02:15:02;17.23;;;15.93;;
28160;SDS011;15448;51.956;7.670;2022-08-21T02:17:36;17.40;;;16.03;;
28160;SDS011;15448;51.956;7.670;2022-08-21T02:20:11;17.57;;;16.37;;
28160;SDS011;15448;51.956;7.670;2022-08-21T02:22:41;16.43;;;15.20;;
28160;SDS011;15448;51.956;7.670;2022-08-21T02:25:07;16.80;;;15.70;;
28160;SDS011;15448;51.956;7.670;2022-08-21T02:27:42;15.53;;;14.70;;
28160;SDS011;15448;51.956;7.670;2022-08-21T02:30:13;15.93;;;14.60;;
28160;SDS011;15448;51.956;7.670;2022-08-21T02:32:50;15.43;;;14.23;;
28160;SDS011;15448;51.956;7.670;2022-08-21T02:35:15;15.67;;;14.80;;
28160;SDS011;15448;51.956;7.670;2022-08-21T02:37:52;16.47;;;15.33;;
28160;SDS011;15448;51.956;7.670;2022-08-21T02:40:21;16.57;;;15.43;;
28160;SDS011;15448;51.956;7.670;2022-08-21T02:42:48;16.07;;;14.83;;
28160;SDS011;15448;51.956;7.670;2022-08-21T02:45:14;16.67;;;15.67;;
28160;SDS011;15448;51.956;7.670;2022-08-21T02:47:51;16.23;;;15.37;;
28160;SDS011;15448;51.956;7.670;2022-08-21T02:50:22;15.53;;;14.83;;
28160;SDS011;15448;51.956;7.670;2022-08-21T02:52:50;15.73;;;14.90;;
28160;SDS011;15448;51.956;7.670;2022-08-21T02:55:17;17.10;;;15.93;;
28160;SDS011;15448;51.956;7.670;2022-08-21T02:57:47;18.40;;;14.90;;
28160;SDS011;15448;51.956;7.670;2022-08-21T03:00:13;15.83;;;14.77;;
28160;SDS011;15448;51.956;7.670;2022-08-21T03:02:40;15.50;;;14.67;;
28160;SDS011;15448;51.956;7.670;2022-08-21T03:05:06;16.17;;;15.03;;
28160;SDS011;15448;51.956;7.670;2022-08-21T03:07:35;16.00;;;14.63;;
28160;SDS011;15448;51.956;7.670;2022-08-21T03:10:01;16.17;;;15.10;;
28160;SDS011;15448;51.956;7.670;2022-08-21T03:12:27;16.60;;;15.33;;
28160;SDS011;15448;51.956;7.670;2022-08-21T03:14:53;15.57;;;14.47;;
28160;SDS011;15448;51.956;7.670;2022-08-21T03:17:19;16.07;;;14.60;;
28160;SDS011;15448;51.956;7.670;2022-08-21T03:19:44;15.60;;;14.47;;
28160;SDS011;15448;51.956;7.670;2022-08-21T03:22:10;15.40;;;14.43;;
28160;SDS011;15448;51.956;7.670;2022-08-21T03:24:35;16.50;;;15.30;;
28160;SDS011;15448;51.956;7.670;2022-08-21T03:27:01;16.83;;;15.70;;
28160;SDS011;15448;51.956;7.670;2022-08-21T03:29:27;16.17;;;15.23;;
28160;SDS011;15448;51.956;7.670;2022-08-21T03:31:53;17.33;;;16.13;;
28160;SDS011;15448;51.956;7.670;2022-08-21T03:34:19;16.00;;;14.93;;
28160;SDS011;15448;51.956;7.670;2022-08-21T03:36:45;16.43;;;15.20;;
28160;SDS011;15448;51.956;7.670;2022-08-21T03:39:11;17.53;;;16.30;;
28160;SDS011;15448;51.956;7.670;2022-08-21T03:41:37;17.13;;;15.70;;
28160;SDS011;15448;51.956;7.670;2022-08-21T03:44:02;16.37;;;15.37;;
28160;SDS011;15448;51.956;7.670;2022-08-21T03:46:28;16.50;;;15.27;;
28160;SDS011;15448;51.956;7.670;2022-08-21T03:48:53;16.33;;;15.43;;
28160;SDS011;15448;51.956;7.670;2022-08-21T03:51:20;15.70;;;14.70;;
28160;SDS011;15448;51.956;7.670;2022-08-21T03:53:45;16.97;;;15.80;;
28160;SDS011;15448;51.956;7.670;2022-08-21T03:56:11;17.20;;;15.90;;
28160;SDS011;15448;51.956;7.670;2022-08-21T03:58:37;16.80;;;15.63;;
28160;SDS011;15448;51.956;7.670;2022-08-21T04:01:04;17.63;;;16.30;;
28160;SDS011;15448;51.956;7.670;2022-08-21T04:03:31;17.43;;;16.13;;
28160;SDS011;15448;51.956;7.670;2022-08-21T04:05:59;16.83;;;15.57;;
28160;SDS011;15448;51.956;7.670;2022-08-21T04:08:24;16.67;;;15.47;;
28160;SDS011;15448;51.956;7.670;2022-08-21T04:10:51;18.00;;;16.47;;
28160;SDS011;15448;51.956;7.670;2022-08-21T04:13:18;17.63;;;16.47;;
28160;SDS011;15448;51.956;7.670;2022-08-21T04:15:45;23.57;;;16.70;;
28160;SDS011;15448;51.956;7.670;2022-08-21T04:18:11;16.67;;;15.07;;
28160;SDS011;15448;51.956;7.670;2022-08-21T04:20:36;17.33;;;16.13;;
28160;SDS011;15448;51.956;7.670;2022-08-21T04:23:02;17.03;;;15.93;;
28160;SDS011;15448;51.956;7.670;2022-08-21T04:25:28;15.80;;;14.90;;
28160;SDS011;15448;51.956;7.670;2022-08-21T04:27:55;88.70;;;36.20;;
28160;SDS011;15448;51.956;7.670;2022-08-21T04:30:21;87.03;;;31.40;;
28160;SDS011;15448;51.956;7.670;2022-08-21T04:32:47;60.93;;;27.60;;
28160;SDS011;15448;51.956;7.670;2022-08-21T04:35:15;83.17;;;29.53;;
28160;SDS011;15448;51.956;7.670;2022-08-21T04:37:43;44.40;;;22.50;;
28160;SDS011;15448;51.956;7.670;2022-08-21T04:40:09;44.93;;;22.50;;
28160;SDS011;15448;51.956;7.670;2022-08-21T04:42:44;23.00;;;19.43;;
28160;SDS011;15448;51.956;7.670;2022-08-21T04:45:28;28.67;;;19.17;;
28160;SDS011;15448;51.956;7.670;2022-08-21T04:47:56;27.83;;;18.23;;
28160;SDS011;15448;51.956;7.670;2022-08-21T04:50:24;19.97;;;17.90;;
28160;SDS011;15448;51.956;7.670;2022-08-21T04:52:56;18.33;;;16.80;;
28160;SDS011;15448;51.956;7.670;2022-08-21T04:55:23;19.30;;;17.90;;
28160;SDS011;15448;51.956;7.670;2022-08-21T04:57:49;18.77;;;17.07;;
28160;SDS011;15448;51.956;7.670;2022-08-21T05:00:18;17.53;;;16.40;;
28160;SDS011;15448;51.956;7.670;2022-08-21T05:02:44;17.90;;;16.37;;
28160;SDS011;15448;51.956;7.670;2022-08-21T05:05:12;20.13;;;17.10;;
28160;SDS011;15448;51.956;7.670;2022-08-21T05:07:38;18.67;;;17.20;;
28160;SDS011;15448;51.956;7.670;2022-08-21T05:10:04;28.93;;;17.90;;
28160;SDS011;15448;51.956;7.670;2022-08-21T05:12:32;44.37;;;19.33;;
28160;SDS011;15448;51.956;7.670;2022-08-21T05:14:58;21.97;;;17.10;;
28160;SDS011;15448;51.956;7.670;2022-08-21T05:17:24;18.23;;;16.80;;
28160;SDS011;15448;51.956;7.670;2022-08-21T05:19:49;18.17;;;16.77;;
28160;SDS011;15448;51.956;7.670;2022-08-21T05:22:19;24.53;;;17.47;;
28160;SDS011;15448;51.956;7.670;2022-08-21T05:24:46;18.77;;;17.47;;
28160;SDS011;15448;51.956;7.670;2022-08-21T05:27:11;18.13;;;16.90;;
28160;SDS011;15448;51.956;7.670;2022-08-21T05:29:37;18.40;;;17.00;;
28160;SDS011;15448;51.956;7.670;2022-08-21T05:32:07;17.93;;;16.93;;
28160;SDS011;15448;51.956;7.670;2022-08-21T05:34:34;18.60;;;17.17;;
28160;SDS011;15448;51.956;7.670;2022-08-21T05:37:00;19.43;;;18.03;;
28160;SDS011;15448;51.956;7.670;2022-08-21T05:39:25;18.67;;;17.27;;
28160;SDS011;15448;51.956;7.670;2022-08-21T05:41:51;18.17;;;16.87;;
28160;SDS011;15448;51.956;7.670;2022-08-21T05:44:16;19.50;;;17.80;;
28160;SDS011;15448;51.956;7.670;2022-08-21T05:46:42;18.43;;;17.07;;
28160;SDS011;15448;51.956;7.670;2022-08-21T05:49:07;17.60;;;16.60;;
28160;SDS011;15448;51.956;7.670;2022-08-21T05:51:33;19.13;;;17.80;;
28160;SDS011;15448;51.956;7.670;2022-08-21T05:53:58;18.20;;;16.77;;
28160;SDS011;15448;51.956;7.670;2022-08-21T05:56:24;17.73;;;16.40;;
28160;SDS011;15448;51.956;7.670;2022-08-21T05:58:49;19.10;;;17.40;;
28160;SDS011;15448;51.956;7.670;2022-08-21T06:01:15;17.63;;;16.37;;
28160;SDS011;15448;51.956;7.670;2022-08-21T06:03:41;18.10;;;16.83;;
28160;SDS011;15448;51.956;7.670;2022-08-21T06:06:07;17.37;;;16.27;;
28160;SDS011;15448;51.956;7.670;2022-08-21T06:08:33;18.70;;;17.20;;
28160;SDS011;15448;51.956;7.670;2022-08-21T06:11:00;17.43;;;16.20;;
28160;SDS011;15448;51.956;7.670;2022-08-21T06:13:27;18.20;;;16.93;;
28160;SDS011;15448;51.956;7.670;2022-08-21T06:16:12;18.53;;;17.23;;
28160;SDS011;15448;51.956;7.670;2022-08-21T06:18:40;17.53;;;16.30;;
28160;SDS011;15448;51.956;7.670;2022-08-21T06:21:06;17.80;;;16.80;;
28160;SDS011;15448;51.956;7.670;2022-08-21T06:23:33;17.00;;;15.47;;
28160;SDS011;15448;51.956;7.670;2022-08-21T06:25:59;25.13;;;17.70;;
28160;SDS011;15448;51.956;7.670;2022-08-21T06:28:26;18.03;;;16.67;;
28160;SDS011;15448;51.956;7.670;2022-08-21T06:30:52;17.43;;;16.20;;
28160;SDS011;15448;51.956;7.670;2022-08-21T06:33:18;17.77;;;16.50;;
28160;SDS011;15448;51.956;7.670;2022-08-21T06:35:43;19.90;;;17.33;;
28160;SDS011;15448;51.956;7.670;2022-08-21T06:38:09;19.03;;;17.50;;
28160;SDS011;15448;51.956;7.670;2022-08-21T06:40:35;18.67;;;17.17;;
28160;SDS011;15448;51.956;7.670;2022-08-21T06:43:07;20.10;;;18.27;;
28160;SDS011;15448;51.956;7.670;2022-08-21T06:45:35;18.60;;;17.10;;
28160;SDS011;15448;51.956;7.670;2022-08-21T06:48:01;19.60;;;17.70;;
28160;SDS011;15448;51.956;7.670;2022-08-21T06:50:27;21.07;;;18.00;;
28160;SDS011;15448;51.956;7.670;2022-08-21T06:53:05;18.27;;;16.67;;
28160;SDS011;15448;51.956;7.670;2022-08-21T06:55:32;18.03;;;16.70;;
28160;SDS011;15448;51.956;7.670;2022-08-21T06:57:59;17.67;;;16.33;;
28160;SDS011;15448;51.956;7.670;2022-08-21T07:00:25;17.43;;;16.27;;
28160;SDS011;15448;51.956;7.670;2022-08-21T07:02:50;17.17;;;16.07;;
28160;SDS011;15448;51.956;7.670;2022-08-21T07:05:16;17.60;;;16.40;;
28160;SDS011;15448;51.956;7.670;2022-08-21T07:07:42;18.97;;;17.57;;
28160;SDS011;15448;51.956;7.670;2022-08-21T07:10:08;17.43;;;15.97;;
28160;SDS011;15448;51.956;7.670;2022-08-21T07:12:34;18.20;;;16.70;;
28160;SDS011;15448;51.956;7.670;2022-08-21T07:14:59;17.10;;;15.70;;
28160;SDS011;15448;51.956;7.670;2022-08-21T07:17:25;16.67;;;15.50;;
28160;SDS011;15448;51.956;7.670;2022-08-21T07:19:50;17.47;;;16.27;;
28160;SDS011;15448;51.956;7.670;2022-08-21T07:22:17;17.60;;;16.00;;
28160;SDS011;15448;51.956;7.670;2022-08-21T07:24:45;16.93;;;15.87;;
28160;SDS011;15448;51.956;7.670;2022-08-21T07:27:10;16.00;;;14.80;;
28160;SDS011;15448;51.956;7.670;2022-08-21T07:29:36;18.23;;;16.67;;
28160;SDS011;15448;51.956;7.670;2022-08-21T07:32:02;17.77;;;16.13;;
28160;SDS011;15448;51.956;7.670;2022-08-21T07:34:28;17.53;;;16.43;;
28160;SDS011;15448;51.956;7.670;2022-08-21T07:36:54;16.93;;;15.80;;
28160;SDS011;15448;51.956;7.670;2022-08-21T07:39:20;17.07;;;15.60;;
28160;SDS011;15448;51.956;7.670;2022-08-21T07:41:46;16.20;;;15.30;;
28160;SDS011;15448;51.956;7.670;2022-08-21T07:44:11;16.93;;;15.60;;
28160;SDS011;15448;51.956;7.670;2022-08-21T07:46:37;16.40;;;15.30;;
28160;SDS011;15448;51.956;7.670;2022-08-21T07:49:02;15.70;;;14.80;;
28160;SDS011;15448;51.956;7.670;2022-08-21T07:51:28;28.23;;;14.50;;
28160;SDS011;15448;51.956;7.670;2022-08-21T07:53:55;14.97;;;14.27;;
28160;SDS011;15448;51.956;7.670;2022-08-21T07:56:22;16.30;;;15.07;;
28160;SDS011;15448;51.956;7.670;2022-08-21T07:58:47;16.40;;;15.13;;
28160;SDS011;15448;51.956;7.670;2022-08-21T08:01:13;16.13;;;14.80;;
28160;SDS011;15448;51.956;7.670;2022-08-21T08:03:39;16.47;;;15.37;;
28160;SDS011;15448;51.956;7.670;2022-08-21T08:06:06;17.33;;;15.40;;
28160;SDS011;15448;51.956;7.670;2022-08-21T08:08:36;15.87;;;14.67;;
28160;SDS011;15448;51.956;7.670;2022-08-21T08:11:03;15.63;;;14.30;;
28160;SDS011;15448;51.956;7.670;2022-08-21T08:13:28;15.47;;;14.40;;
28160;SDS011;15448;51.956;7.670;2022-08-21T08:15:54;15.63;;;14.23;;
28160;SDS011;15448;51.956;7.670;2022-08-21T08:18:19;17.00;;;15.20;;
28160;SDS011;15448;51.956;7.670;2022-08-21T08:20:45;16.57;;;14.90;;
28160;SDS011;15448;51.956;7.670;2022-08-21T08:23:11;14.87;;;14.07;;
28160;SDS011;15448;51.956;7.670;2022-08-21T08:25:37;15.60;;;14.70;;
28160;SDS011;15448;51.956;7.670;2022-08-21T08:28:04;15.97;;;15.10;;
28160;SDS011;15448;51.956;7.670;2022-08-21T08:30:31;16.80;;;15.20;;
28160;SDS011;15448;51.956;7.670;2022-08-21T08:32:56;16.93;;;15.30;;
28160;SDS011;15448;51.956;7.670;2022-08-21T08:35:22;15.70;;;14.70;;
28160;SDS011;15448;51.956;7.670;2022-08-21T08:37:49;15.10;;;14.40;;
28160;SDS011;15448;51.956;7.670;2022-08-21T08:40:32;14.97;;;14.00;;
28160;SDS011;15448;51.956;7.670;2022-08-21T08:43:21;17.13;;;15.67;;
28160;SDS011;15448;51.956;7.670;2022-08-21T08:45:48;16.17;;;14.97;;
28160;SDS011;15448;51.956;7.670;2022-08-21T08:48:21;15.80;;;14.60;;
28160;SDS011;15448;51.956;7.670;2022-08-21T08:51:04;16.17;;;14.93;;
28160;SDS011;15448;51.956;7.670;2022-08-21T08:53:43;17.33;;;15.80;;
28160;SDS011;15448;51.956;7.670;2022-08-21T08:56:14;15.03;;;14.00;;
28160;SDS011;15448;51.956;7.670;2022-08-21T08:58:41;15.30;;;14.20;;
28160;SDS011;15448;51.956;7.670;2022-08-21T09:01:14;15.87;;;14.80;;
28160;SDS011;15448;51.956;7.670;2022-08-21T09:03:44;17.30;;;16.10;;
28160;SDS011;15448;51.956;7.670;2022-08-21T09:12:12;14.50;;;13.57;;
28160;SDS011;15448;51.956;7.670;2022-08-21T09:14:47;15.57;;;14.20;;
28160;SDS011;15448;51.956;7.670;2022-08-21T09:23:26;15.80;;;14.60;;
28160;SDS011;15448;51.956;7.670;2022-08-21T09:26:16;15.93;;;14.50;;
28160;SDS011;15448;51.956;7.670;2022-08-21T09:28:44;16.00;;;14.90;;
28160;SDS011;15448;51.956;7.670;2022-08-21T09:31:21;15.10;;;13.90;;
28160;SDS011;15448;51.956;7.670;2022-08-21T09:33:47;14.90;;;13.77;;
28160;SDS011;15448;51.956;7.670;2022-08-21T09:36:12;17.47;;;15.63;;
28160;SDS011;15448;51.956;7.670;2022-08-21T09:38:55;16.30;;;14.93;;
28160;SDS011;15448;51.956;7.670;2022-08-21T09:41:28;15.13;;;13.87;;
28160;SDS011;15448;51.956;7.670;2022-08-21T09:43:56;15.17;;;14.23;;
28160;SDS011;15448;51.956;7.670;2022-08-21T09:46:23;14.87;;;13.97;;
28160;SDS011;15448;51.956;7.670;2022-08-21T09:48:51;14.53;;;13.67;;
28160;SDS011;15448;51.956;7.670;2022-08-21T09:51:21;16.10;;;14.70;;
28160;SDS011;15448;51.956;7.670;2022-08-21T09:54:10;15.00;;;14.00;;
28160;SDS011;15448;51.956;7.670;2022-08-21T10:00:11;15.20;;;14.20;;
28160;SDS011;15448;51.956;7.670;2022-08-21T10:02:44;14.13;;;13.43;;
28160;SDS011;15448;51.956;7.670;2022-08-21T10:05:17;13.67;;;13.03;;
28160;SDS011;15448;51.956;7.670;2022-08-21T10:07:51;13.97;;;13.03;;
28160;SDS011;15448;51.956;7.670;2022-08-21T10:10:21;13.17;;;12.57;;
28160;SDS011;15448;51.956;7.670;2022-08-21T10:12:57;14.47;;;13.53;;
28160;SDS011;15448;51.956;7.670;2022-08-21T10:16:15;13.63;;;13.03;;
28160;SDS011;15448;51.956;7.670;2022-08-21T10:21:27;15.07;;;14.03;;
28160;SDS011;15448;51.956;7.670;2022-08-21T10:24:08;15.17;;;14.20;;
28160;SDS011;15448;51.956;7.670;2022-08-21T10:29:52;14.63;;;13.50;;
28160;SDS011;15448;51.956;7.670;2022-08-21T10:40:29;14.97;;;14.07;;
28160;SDS011;15448;51.956;7.670;2022-08-21T10:46:04;15.73;;;15.03;;
28160;SDS011;15448;51.956;7.670;2022-08-21T10:49:02;15.93;;;14.73;;
28160;SDS011;15448;51.956;7.670;2022-08-21T10:51:50;15.07;;;14.27;;
28160;SDS011;15448;51.956;7.670;2022-08-21T10:54:49;14.70;;;13.80;;
28160;SDS011;15448;51.956;7.670;2022-08-21T11:00:15;15.97;;;14.90;;
28160;SDS011;15448;51.956;7.670;2022-08-21T11:02:53;14.30;;;13.40;;
28160;SDS011;15448;51.956;7.670;2022-08-21T11:05:26;14.67;;;13.80;;
28160;SDS011;15448;51.956;7.670;2022-08-21T11:08:08;14.83;;;14.13;;
28160;SDS011;15448;51.956;7.670;2022-08-21T11:10:42;14.80;;;14.20;;
28160;SDS011;15448;51.956;7.670;2022-08-21T11:13:17;14.23;;;13.53;;
28160;SDS011;15448;51.956;7.670;2022-08-21T11:15:53;14.33;;;13.63;;
28160;SDS011;15448;51.956;7.670;2022-08-21T11:18:46;14.83;;;14.13;;
28160;SDS011;15448;51.956;7.670;2022-08-21T11:21:20;14.93;;;14.03;;
28160;SDS011;15448;51.956;7.670;2022-08-21T11:29:40;15.10;;;14.30;;
28160;SDS011;15448;51.956;7.670;2022-08-21T11:32:31;14.03;;;13.37;;
28160;SDS011;15448;51.956;7.670;2022-08-21T11:35:39;13.87;;;13.17;;
28160;SDS011;15448;51.956;7.670;2022-08-21T11:38:37;13.83;;;13.23;;
28160;SDS011;15448;51.956;7.670;2022-08-21T11:43:48;15.43;;;14.40;;
28160;SDS011;15448;51.956;7.670;2022-08-21T11:46:34;14.80;;;13.60;;
28160;SDS011;15448;51.956;7.670;2022-08-21T11:49:13;13.77;;;13.07;;
28160;SDS011;15448;51.956;7.670;2022-08-21T11:52:21;12.93;;;12.37;;
28160;SDS011;15448;51.956;7.670;2022-08-21T11:55:01;15.00;;;14.20;;
28160;SDS011;15448;51.956;7.670;2022-08-21T11:57:48;13.73;;;12.93;;
28160;SDS011;15448;51.956;7.670;2022-08-21T12:00:23;14.33;;;13.20;;
28160;SDS011;15448;51.956;7.670;2022-08-21T12:02:55;14.10;;;13.27;;
28160;SDS011;15448;51.956;7.670;2022-08-21T12:05:33;13.20;;;12.70;;
28160;SDS011;15448;51.956;7.670;2022-08-21T12:08:10;13.57;;;13.00;;
28160;SDS011;15448;51.956;7.670;2022-08-21T12:14:19;13.00;;;12.37;;
28160;SDS011;15448;51.956;7.670;2022-08-21T12:16:42;14.00;;;12.83;;
28160;SDS011;15448;51.956;7.670;2022-08-21T12:21:49;13.77;;;13.10;;
28160;SDS011;15448;51.956;7.670;2022-08-21T12:29:43;13.47;;;12.77;;
28160;SDS011;15448;51.956;7.670;2022-08-21T12:34:38;13.23;;;12.60;;
28160;SDS011;15448;51.956;7.670;2022-08-21T12:37:19;13.00;;;12.40;;
28160;SDS011;15448;51.956;7.670;2022-08-21T12:40:02;13.33;;;12.63;;
28160;SDS011;15448;51.956;7.670;2022-08-21T12:42:41;12.50;;;11.80;;
28160;SDS011;15448;51.956;7.670;2022-08-21T12:45:17;12.60;;;12.10;;
28160;SDS011;15448;51.956;7.670;2022-08-21T12:50:36;13.27;;;12.73;;
28160;SDS011;15448;51.956;7.670;2022-08-21T12:53:10;13.00;;;12.50;;
28160;SDS011;15448;51.956;7.670;2022-08-21T12:55:41;12.83;;;12.00;;
28160;SDS011;15448;51.956;7.670;2022-08-21T12:58:21;12.27;;;11.77;;
28160;SDS011;15448;51.956;7.670;2022-08-21T13:00:50;13.00;;;12.50;;
28160;SDS011;15448;51.956;7.670;2022-08-21T13:03:18;13.53;;;12.73;;
28160;SDS011;15448;51.956;7.670;2022-08-21T13:05:44;12.10;;;11.70;;
28160;SDS011;15448;51.956;7.670;2022-08-21T13:08:11;13.10;;;12.40;;
28160;SDS011;15448;51.956;7.670;2022-08-21T13:10:39;14.20;;;13.30;;
28160;SDS011;15448;51.956;7.670;2022-08-21T13:13:07;13.87;;;13.03;;
28160;SDS011;15448;51.956;7.670;2022-08-21T13:15:42;13.77;;;13.00;;
28160;SDS011;15448;51.956;7.670;2022-08-21T13:18:07;13.33;;;12.73;;
28160;SDS011;15448;51.956;7.670;2022-08-21T13:20:44;13.43;;;12.87;;
28160;SDS011;15448;51.956;7.670;2022-08-21T13:23:21;13.00;;;12.50;;
28160;SDS011;15448;51.956;7.670;2022-08-21T13:25:49;13.10;;;12.50;;
28160;SDS011;15448;51.956;7.670;2022-08-21T13:28:15;13.67;;;12.87;;
28160;SDS011;15448;51.956;7.670;2022-08-21T13:33:11;12.47;;;12.07;;
28160;SDS011;15448;51.956;7.670;2022-08-21T13:38:12;12.83;;;12.17;;
28160;SDS011;15448;51.956;7.670;2022-08-21T13:40:40;12.90;;;12.20;;
28160;SDS011;15448;51.956;7.670;2022-08-21T13:43:16;13.07;;;12.20;;
28160;SDS011;15448;51.956;7.670;2022-08-21T13:45:49;12.73;;;12.13;;
28160;SDS011;15448;51.956;7.670;2022-08-21T13:48:17;12.30;;;11.70;;
28160;SDS011;15448;51.956;7.670;2022-08-21T13:50:43;12.93;;;12.43;;
28160;SDS011;15448;51.956;7.670;2022-08-21T13:53:20;13.97;;;13.30;;
28160;SDS011;15448;51.956;7.670;2022-08-21T13:55:54;13.97;;;13.07;;
28160;SDS011;15448;51.956;7.670;2022-08-21T13:58:24;13.53;;;12.83;;
28160;SDS011;15448;51.956;7.670;2022-08-21T14:00:55;13.47;;;12.80;;
28160;SDS011;15448;51.956;7.670;2022-08-21T14:03:26;13.00;;;12.27;;
28160;SDS011;15448;51.956;7.670;2022-08-21T14:05:52;12.70;;;12.00;;
28160;SDS011;15448;51.956;7.670;2022-08-21T14:08:34;13.27;;;12.77;;
28160;SDS011;15448;51.956;7.670;2022-08-21T14:11:05;13.57;;;12.87;;
28160;SDS011;15448;51.956;7.670;2022-08-21T14:13:36;13.00;;;12.33;;
28160;SDS011;15448;51.956;7.670;2022-08-21T14:16:16;13.97;;;13.00;;
28160;SDS011;15448;51.956;7.670;2022-08-21T14:18:52;13.47;;;12.87;;
28160;SDS011;15448;51.956;7.670;2022-08-21T14:21:27;13.80;;;13.10;;
28160;SDS011;15448;51.956;7.670;2022-08-21T14:24:03;12.93;;;12.30;;
28160;SDS011;15448;51.956;7.670;2022-08-21T14:26:31;13.43;;;12.73;;
28160;SDS011;15448;51.956;7.670;2022-08-21T14:28:59;13.30;;;12.50;;
28160;SDS011;15448;51.956;7.670;2022-08-21T14:31:28;14.07;;;13.40;;
28160;SDS011;15448;51.956;7.670;2022-08-21T14:33:55;13.33;;;12.73;;
28160;SDS011;15448;51.956;7.670;2022-08-21T14:36:21;12.20;;;11.50;;
28160;SDS011;15448;51.956;7.670;2022-08-21T14:38:46;12.60;;;12.00;;
28160;SDS011;15448;51.956;7.670;2022-08-21T14:41:16;12.93;;;12.30;;
28160;SDS011;15448;51.956;7.670;2022-08-21T14:43:46;12.63;;;12.00;;
28160;SDS011;15448;51.956;7.670;2022-08-21T14:46:12;12.80;;;12.13;;
28160;SDS011;15448;51.956;7.670;2022-08-21T14:48:44;13.30;;;12.70;;
28160;SDS011;15448;51.956;7.670;2022-08-21T14:51:11;13.63;;;12.73;;
28160;SDS011;15448;51.956;7.670;2022-08-21T14:53:36;13.93;;;13.10;;
28160;SDS011;15448;51.956;7.670;2022-08-21T14:56:02;13.17;;;12.67;;
28160;SDS011;15448;51.956;7.670;2022-08-21T14:58:32;12.57;;;12.03;;
28160;SDS011;15448;51.956;7.670;2022-08-21T15:00:59;14.00;;;13.30;;
28160;SDS011;15448;51.956;7.670;2022-08-21T15:03:28;14.10;;;13.50;;
28160;SDS011;15448;51.956;7.670;2022-08-21T15:05:55;14.97;;;14.07;;
28160;SDS011;15448;51.956;7.670;2022-08-21T15:08:21;13.77;;;13.07;;
28160;SDS011;15448;51.956;7.670;2022-08-21T15:10:46;13.70;;;12.80;;
28160;SDS011;15448;51.956;7.670;2022-08-21T15:13:12;13.57;;;12.80;;
28160;SDS011;15448;51.956;7.670;2022-08-21T15:15:40;13.50;;;13.00;;
28160;SDS011;15448;51.956;7.670;2022-08-21T15:18:07;13.97;;;13.33;;
28160;SDS011;15448;51.956;7.670;2022-08-21T15:20:33;13.50;;;13.00;;
28160;SDS011;15448;51.956;7.670;2022-08-21T15:22:59;13.77;;;12.97;;
28160;SDS011;15448;51.956;7.670;2022-08-21T15:25:25;13.60;;;13.10;;
28160;SDS011;15448;51.956;7.670;2022-08-21T15:27:51;14.50;;;13.80;;
28160;SDS011;15448;51.956;7.670;2022-08-21T15:30:16;13.37;;;12.77;;
28160;SDS011;15448;51.956;7.670;2022-08-21T15:32:42;14.10;;;13.20;;
28160;SDS011;15448;51.956;7.670;2022-08-21T15:35:08;13.10;;;12.60;;
28160;SDS011;15448;51.956;7.670;2022-08-21T15:37:34;13.60;;;13.00;;
28160;SDS011;15448;51.956;7.670;2022-08-21T15:40:00;14.03;;;12.93;;
28160;SDS011;15448;51.956;7.670;2022-08-21T15:42:26;13.20;;;12.60;;
28160;SDS011;15448;51.956;7.670;2022-08-21T15:44:52;14.00;;;12.97;;